Sagehen Creek Weather observations

Data are for observation ending at time listed.
 Day   Time    Ave.   Ave.  Ave.  Vector   Max.   Stn.    Total    Solar   Ave.  
  of    of     Air    Rel.  Wind   Wind    Wind   Baro.  Precip.   Rad.    Soil  
Year   Day     Temp.  Hum.  Speed  Dir.    Gust   Pres.                    Temp. 
2016   (PST)    F      %     mph   deg.    mph     mb.     in.     W/m2     F   
------------------------------------------------------------------------------
 240   10:40   75.7    18    1.9   166      5.9   838.1    3.13     820    999.0
 240   10:50   76.5    18    1.8   231      5.6   837.9    3.13     830    999.0
 240   11:00   77.4    14    1.8   233      5.7   837.8    3.13     825    999.0
 240   11:10   76.9    13    2.7   191      7.9   838.1    3.13     861    999.0
 240   11:20   77.0    13    2.4   223      5.9   838.0    3.13     886    999.0
 240   11:30   77.7    14    3.0   244      8.0   837.9    3.13     901    999.0
 240   11:40   77.2    13    3.0   249      7.5   837.9    3.13     898    999.0
 240   11:50   78.1    13    2.4   191      7.2   837.9    3.13     904    999.0
 240   12:00   78.3    13    3.0   216      6.2   837.9    3.13     908    999.0
 240   12:10   78.3    13    2.8   187      6.3   837.9    3.13     902    999.0
 240   12:20   77.8    14    2.5   233      7.9   837.7    3.13     899    999.0
 240   12:30   78.9    14    2.6   212      5.8   837.5    3.13     889    999.0
 240   12:40   78.7    13    3.3   268      8.9   837.9    3.13     884    999.0
 240   12:50   78.5    14    2.2   276      6.2   837.9    3.13     873    999.0
 240   13:00   78.9    14    3.1   212      6.2   837.9    3.13     863    999.0
 240   13:10   78.8    14    2.9   203      7.4   837.5    3.13     860    999.0
 240   13:20   78.5    13    2.5   256      6.4   837.6    3.13     857    999.0
 240   13:30   79.3    13    2.4   268      7.5   837.8    3.13     844    999.0
 240   13:40   79.5    14    2.2   216      4.8   837.2    3.13     839    999.0
 240   13:50   79.3    13    1.7   222      4.2   837.3    3.13     819    999.0
 240   14:00   79.4    14    2.8   195      6.0   837.3    3.13     800    999.0
 240   14:10   79.2    13    2.5   220      8.1   837.5    3.13     784    999.0
 240   14:20   78.5    13    3.3   212      6.6   837.4    3.13     763    999.0
 240   14:30   77.8    13    3.4   206      7.1   837.4    3.13     740    999.0
 240   14:40   77.5    14    2.8   201      7.9   837.3    3.13     716    999.0
 240   14:50   77.5    15    2.0   238      6.3   837.4    3.13     695    999.0
 240   15:00   78.0    15    2.5   223      7.3   837.5    3.13     669    999.0
 240   15:10   77.9    16    2.6   218      7.3   837.5    3.13     643    999.0
 240   15:20   76.9    16    2.9   218      7.4   837.5    3.13     613    999.0
 240   15:30   76.5    16    3.1   238      7.3   837.5    3.13     586    999.0
 240   15:40   76.7    17    2.1   208      6.2   837.5    3.13     556    999.0
 240   15:50   76.3    18    2.7   240      6.3   837.3    3.13     527    999.0
 240   16:00   76.2    17    2.0   211      6.1   837.2    3.13     494    999.0
 240   16:10   75.7    17    2.0   247      4.4   837.6    3.13     463    999.0
 240   16:20   75.3    18    2.7   211      8.4   837.5    3.13     430    999.0
 240   16:30   74.9    18    2.4   266      6.7   837.4    3.13     396    999.0
 240   16:40   75.1    19    1.8   263      6.0   837.6    3.13     365    999.0
 240   16:50   74.4    18    2.3   243      5.9   837.5    3.13     330    999.0
 240   17:00   73.3    20    2.5   234      7.5   837.5    3.13     295    999.0
 240   17:10   73.1    20    1.3   280      3.4   837.9    3.13     259    999.0
 240   17:20   73.0    20    1.6   229      4.2   837.9    3.13     223    999.0
 240   17:30   71.1    23    1.8   262      4.3   837.8    3.13      65    999.0
 240   17:40   69.6    25    0.8   254      2.0   837.9    3.13      37    999.0
 240   17:50   67.8    27    0.7   233      2.0   837.9    3.13      26    999.0
 240   18:00   66.4    29    0.4   239      1.8   837.9    3.13      20    999.0
 240   18:10   65.2    31    0.3   256      1.4   837.8    3.13      15    999.0
 240   18:20   63.5    33    0.4   222      1.6   837.7    3.13      11    999.0
 240   18:30   62.0    36    0.3   248      1.2   837.6    3.13       7    999.0
 240   18:40   60.2    40    0.1   224      0.9   838.1    3.13       4    999.0
 240   18:50   58.5    42    0.2   233      1.0   838.2    3.13       2    999.0
 240   19:00   57.1    45    0.4   229      1.7   838.2    3.13       0    999.0
 240   19:10   55.7    47    0.3   268      1.3   838.3    3.13       0    999.0
 240   19:20   54.5    49    0.4   245      1.3   838.3    3.13       0    999.0
 240   19:30   53.3    51    0.4   246      1.4   838.4    3.13       0    999.0
 240   19:40   52.1    52    0.6   258      1.7   838.3    3.13       0    999.0
 240   19:50   51.1    54    0.4   251      1.2   838.5    3.13       0    999.0
 240   20:00   50.3    54    0.2   252      1.1   838.7    3.14       0    999.0
 240   20:10   49.7    53    0.5   252      1.2   838.7    3.14       0    999.0
 240   20:20   48.8    55    0.4   242      1.6   838.6    3.14       0    999.0
 240   20:30   48.1    57    0.4   221      1.0   838.5    3.14       0    999.0
 240   20:40   47.2    57    0.3   251      1.0   838.9    3.14       0    999.0
 240   20:50   46.8    56    0.5   267      1.5   839.0    3.14       0    999.0
 240   21:00   46.1    58    0.5   235      0.9   839.0    3.14       0    999.0
 240   21:10   45.4    58    0.5   231      1.4   838.6    3.14       0    999.0
 240   21:20   44.8    58    0.4   239      1.0   838.8    3.14       0    999.0
 240   21:30   44.2    59    0.4   243      1.2   838.9    3.14       0    999.0
 240   21:40   43.7    57    0.5   264      1.3   839.0    3.14       0    999.0
 240   21:50   43.2    58    0.6   247      1.5   839.1    3.14       0    999.0
 240   22:00   42.6    59    0.3   250      0.8   839.2    3.14       0    999.0
 240   22:10   42.1    59    0.6   253      1.4   839.2    3.14       0    999.0
 240   22:20   41.4    63    0.2   252      0.8   839.2    3.14       0    999.0
 240   22:30   40.9    59    0.6   257      1.1   839.2    3.14       0    999.0
 240   22:40   40.4    61    0.6   249      1.0   839.2    3.14       0    999.0
 240   22:50   40.0    61    0.6   264      1.0   839.1    3.14       0    999.0
 240   23:00   39.7    61    0.7   255      1.4   838.9    3.14       0    999.0
 240   23:10   39.3    62    0.7   260      1.3   838.9    3.14       0    999.0
 240   23:20   38.8    62    0.4   263      1.4   838.9    3.14       0    999.0
 240   23:30   38.5    62    0.5   261      1.0   838.8    3.14       0    999.0
 240   23:40   38.1    63    0.7   261      1.0   838.9    3.14       0    999.0
 240   23:50   37.8    64    0.6   251      1.5   839.1    3.14       0    999.0
 241    0:00   37.6    63    0.6   269      1.6   839.4    3.14       0    999.0
 241    0:10   37.2    64    0.5   261      1.2   839.4    3.14       0    999.0
 241    0:20   36.9    65    0.6   253      1.1   839.4    3.14       0    999.0
 241    0:30   36.6    65    0.8   264      1.3   839.3    3.14       0    999.0
 241    0:40   36.4    67    0.6   254      1.4   839.4    3.14       0    999.0
 241    0:50   36.0    65    0.7   266      1.2   839.4    3.14       0    999.0
 241    1:00   36.0    65    0.8   262      1.4   839.4    3.14       0    999.0
 241    1:10   35.7    65    0.9   260      1.3   839.6    3.14       0    999.0
 241    1:20   35.4    68    0.7   249      1.3   839.4    3.14       0    999.0
 241    1:30   35.1    67    0.7   259      1.4   839.2    3.14       0    999.0
 241    1:40   34.9    67    0.8   265      1.5   839.5    3.14       0    999.0
 241    1:50   34.7    67    0.9   269      1.3   839.6    3.14       0    999.0
 241    2:00   34.7    67    0.8   265      1.3   839.7    3.14       0    999.0
 241    2:10   34.5    67    0.8   262      1.1   839.7    3.14       0    999.0
 241    2:20   34.2    69    0.7   252      1.2   839.7    3.14       0    999.0
 241    2:30   33.9    69    1.0   262      1.5   839.7    3.14       0    999.0
 241    2:40   33.7    70    0.7   261      1.4   839.6    3.14       0    999.0
 241    2:50   33.6    70    0.9   267      1.6   839.7    3.14       0    999.0
 241    3:00   33.4    70    1.0   266      1.5   839.7    3.14       0    999.0
 241    3:10   33.3    71    0.9   261      1.4   839.4    3.14       0    999.0
 241    3:20   33.2    71    1.1   264      2.2   839.4    3.14       0    999.0
 241    3:30   33.0    73    0.7   258      1.3   839.4    3.14       0    999.0
 241    3:40   32.8    72    0.8   267      1.5   839.4    3.14       0    999.0
 241    3:50   32.6    73    0.7   272      2.0   839.6    3.14       0    999.0
 241    4:00   32.5    73    0.7   270      1.4   839.8    3.14       0    999.0
 241    4:10   32.3    74    0.7   252      1.5   839.4    3.14       0    999.0
 241    4:20   32.2    74    0.8   275      1.5   839.6    3.14       0    999.0
 241    4:30   32.0    75    0.9   262      1.9   839.9    3.14       0    999.0
 241    4:40   31.8    76    1.1   265      2.0   839.8    3.14       0    999.0
 241    4:50   31.8    76    1.0   267      1.5   839.8    3.14       0    999.0
 241    5:00   31.7    76    1.2   265      1.5   839.9    3.14       0    999.0
 241    5:10   31.5    76    1.0   265      1.7   839.8    3.14       0    999.0
 241    5:20   31.4    77    1.1   263      1.8   839.8    3.14       1    999.0
 241    5:30   31.2    77    0.9   265      1.8   839.9    3.14       2    999.0
 241    5:40   31.3    78    1.0   262      1.7   840.1    3.14       6    999.0
 241    5:50   31.3    78    0.9   262      1.4   840.2    3.14      11    999.0
 241    6:00   31.5    78    1.0   272      1.8   840.3    3.14      16    999.0
 241    6:10   31.9    80    0.7   270      1.4   840.4    3.14      64    999.0
 241    6:20   33.3    78    0.5   264      1.6   840.4    3.14     112    999.0
 241    6:30   35.1    73    0.6   266      1.2   840.5    3.14     143    999.0
 241    6:40   36.9    70    0.3   278      0.9   840.5    3.14     175    999.0
 241    6:50   38.9    66    0.1   283      0.6   840.4    3.14     209    999.0
 241    7:00   40.8    64    0.1   332      1.0   840.3    3.14     244    999.0
 241    7:10   42.8    64    0.2   227      0.8   840.4    3.14     278    999.0
 241    7:20   46.3    62    0.0     0      0.0   840.4    3.14     312    999.0
 241    7:30   49.6    57    0.2   110      0.9   840.4    3.14     347    999.0
 241    7:40   51.8    55    0.3    97      1.3   840.4    3.14     382    999.0
 241    7:50   53.2    50    0.5   168      2.0   840.2    3.14     416    999.0
 241    8:00   54.8    48    2.0   111      4.3   840.1    3.14     449    999.0
 241    8:10   57.1    45    1.9   116      4.6   840.4    3.14     483    999.0
 241    8:20   59.0    41    2.4   120      4.7   840.5    3.14     514    999.0
 241    8:30   61.3    38    2.9    98      6.0   840.6    3.13     547    999.0
 241    8:40   64.0    34    2.6    91      5.5   840.6    3.13     577    999.0
 241    8:50   66.3    30    2.3    92      4.8   840.5    3.13     607    999.0
 241    9:00   67.9    26    2.8   100      5.8   840.5    3.13     636    999.0
 241    9:10   69.8    24    2.4    99      6.6   840.7    3.13     664    999.0
 241    9:20   71.8    20    2.0   143      5.2   840.6    3.13     691    999.0
 241    9:30   73.3    21    1.9   122      4.8   840.6    3.13     714    999.0
 241    9:40   74.0    20    1.7   140      4.4   840.7    3.13     737    999.0
 241    9:50   73.6    18    1.9   171      6.0   840.5    3.13     759    999.0
 241   10:00   75.0    16    1.1   180      3.0   840.4    3.13     779    999.0
 241   10:10   75.1    15    2.8    85      8.9   840.3    3.13     797    999.0
 241   10:20   75.3    14    3.0   279      9.9   840.3    3.13     812    999.0
 241   10:30   75.0    14    3.5   241     10.3   840.3    3.13     830    999.0

Return to Sagehen Creek graphs page.


Western Regional Climate Center,wrcc@dri.edu